createdAt,value
2018-12-11T00:00:38.424Z,951.2
2018-12-11T00:01:38.406Z,951.19
2018-12-11T00:02:38.388Z,951.18
2018-12-11T00:03:38.368Z,951.13
2018-12-11T00:04:38.351Z,951.08
2018-12-11T00:05:38.331Z,951.16
2018-12-11T00:06:38.314Z,951.16
2018-12-11T00:07:38.294Z,951.13
2018-12-11T00:08:38.276Z,951.21
2018-12-11T00:09:38.258Z,951.18
2018-12-11T00:10:38.238Z,951.14
2018-12-11T00:11:38.220Z,951.17
2018-12-11T00:12:38.202Z,951.16
2018-12-11T00:13:38.183Z,951.14
2018-12-11T00:14:38.163Z,951.13
2018-12-11T00:15:38.145Z,951.09
2018-12-11T00:16:38.127Z,951.08
2018-12-11T00:17:38.109Z,951.12
2018-12-11T00:18:38.089Z,951.1
2018-12-11T00:19:38.072Z,951.1
2018-12-11T00:20:38.053Z,951.1
2018-12-11T00:21:38.034Z,951.13
2018-12-11T00:22:38.016Z,951.11
2018-12-11T00:23:37.996Z,951.1
2018-12-11T00:24:37.979Z,951.14
2018-12-11T00:25:37.959Z,951.1
2018-12-11T00:26:37.941Z,951.2
2018-12-11T00:27:37.923Z,951.07
2018-12-11T00:28:37.905Z,951.04
2018-12-11T00:29:37.885Z,951.01
2018-12-11T00:30:37.866Z,951
2018-12-11T00:31:37.848Z,951.03
2018-12-11T00:32:37.832Z,951.03
2018-12-11T00:33:37.811Z,951.13
2018-12-11T00:34:37.792Z,951.1
2018-12-11T00:35:37.774Z,951.12
2018-12-11T00:36:37.755Z,951.1
2018-12-11T00:37:37.736Z,951.09
2018-12-11T00:38:37.718Z,951.09
2018-12-11T00:39:37.702Z,951.1
2018-12-11T00:40:37.683Z,951.18
2018-12-11T00:41:37.664Z,951.1
2018-12-11T00:42:37.645Z,951.1
2018-12-11T00:43:37.625Z,951.07
2018-12-11T00:44:37.607Z,951.09
2018-12-11T00:45:37.590Z,951.13
2018-12-11T00:46:37.572Z,951.11
2018-12-11T00:47:37.553Z,951.14
2018-12-11T00:48:37.538Z,951.09
2018-12-11T00:49:37.517Z,951.19
2018-12-11T00:50:37.498Z,951.08
2018-12-11T00:51:37.478Z,951.04
2018-12-11T00:52:37.460Z,951.13
2018-12-11T00:53:37.442Z,951.1
2018-12-11T00:54:37.423Z,951.16
2018-12-11T00:55:37.405Z,951.12
2018-12-11T00:56:37.386Z,951.2
2018-12-11T00:57:37.368Z,951.19
2018-12-11T00:58:37.350Z,951.07
2018-12-11T00:59:37.331Z,951.11
2018-12-11T01:00:37.313Z,950.98
2018-12-11T01:01:37.292Z,951.01
2018-12-11T01:02:37.274Z,951.13
2018-12-11T01:03:37.258Z,951.17
2018-12-11T01:04:37.239Z,951.14
2018-12-11T01:05:37.219Z,951.14
2018-12-11T01:06:37.202Z,951.13
2018-12-11T01:07:37.182Z,951.2
2018-12-11T01:08:37.169Z,951.19
2018-12-11T01:09:37.146Z,951.13
2018-12-11T01:10:37.127Z,951.17
2018-12-11T01:11:37.109Z,951.11
2018-12-11T01:12:37.089Z,951.1
2018-12-11T01:13:37.074Z,951.07
2018-12-11T01:14:37.054Z,951.14
2018-12-11T01:15:37.036Z,951.1
2018-12-11T01:16:37.017Z,951.04
2018-12-11T01:17:36.998Z,951.13
2018-12-11T01:18:36.979Z,951.21
2018-12-11T01:19:36.961Z,951.23
2018-12-11T01:20:36.943Z,951.26
2018-12-11T01:21:36.925Z,951.21
2018-12-11T01:22:36.909Z,951.19
2018-12-11T01:23:36.887Z,951.19
2018-12-11T01:24:36.869Z,951.18
2018-12-11T01:25:36.851Z,951.21
2018-12-11T01:26:36.833Z,951.19
2018-12-11T01:27:36.813Z,951.16
2018-12-11T01:28:36.795Z,951.17
2018-12-11T01:29:36.776Z,951.28
2018-12-11T01:30:36.759Z,951.2
2018-12-11T01:31:36.738Z,951.22
2018-12-11T01:32:36.721Z,951.24
2018-12-11T01:33:36.705Z,951.24
2018-12-11T01:34:36.683Z,951.2
2018-12-11T01:35:36.665Z,951.2
2018-12-11T01:36:36.651Z,951.18
2018-12-11T01:37:36.633Z,951.13
2018-12-11T01:38:36.609Z,951.12
2018-12-11T01:39:36.591Z,951.21
2018-12-11T01:40:36.573Z,951.25
2018-12-11T01:41:36.554Z,951.23
2018-12-11T01:42:36.534Z,951.21
2018-12-11T01:43:36.517Z,951.24
2018-12-11T01:44:36.499Z,951.21
2018-12-11T01:45:36.479Z,951.28
2018-12-11T01:46:36.575Z,951.29
2018-12-11T01:47:36.443Z,951.32
2018-12-11T01:48:36.423Z,951.32
2018-12-11T01:49:36.405Z,951.38
2018-12-11T01:50:36.386Z,951.37
2018-12-11T01:51:36.368Z,951.31
2018-12-11T01:52:36.350Z,951.4
2018-12-11T01:53:36.330Z,951.37
2018-12-11T01:54:36.312Z,951.42
2018-12-11T01:55:36.294Z,951.36
2018-12-11T01:56:36.274Z,951.42
2018-12-11T01:57:36.256Z,951.39
2018-12-11T01:58:36.237Z,951.32
2018-12-11T01:59:36.221Z,951.29
2018-12-11T02:00:36.199Z,951.31
2018-12-11T02:01:36.182Z,951.39
2018-12-11T02:02:36.162Z,951.42
2018-12-11T02:03:36.145Z,951.34
2018-12-11T02:04:36.125Z,951.33
2018-12-11T02:05:36.106Z,951.3
2018-12-11T02:06:36.087Z,951.36
2018-12-11T02:07:36.115Z,951.38
2018-12-11T02:08:36.051Z,951.3
2018-12-11T02:09:36.035Z,951.46
2018-12-11T02:10:36.013Z,951.43
2018-12-11T02:11:35.993Z,951.54
2018-12-11T02:12:35.975Z,951.54
2018-12-11T02:13:35.958Z,951.56
2018-12-11T02:14:35.937Z,951.57
2018-12-11T02:15:35.919Z,951.62
2018-12-11T02:16:35.902Z,951.55
2018-12-11T02:17:35.885Z,951.56
2018-12-11T02:18:35.863Z,951.58
2018-12-11T02:19:35.849Z,951.54
2018-12-11T02:20:35.826Z,951.52
2018-12-11T02:21:41.897Z,951.5
2018-12-11T02:22:35.791Z,951.52
2018-12-11T02:23:35.770Z,951.52
2018-12-11T02:24:35.752Z,951.49
2018-12-11T02:25:35.732Z,951.46
2018-12-11T02:26:35.714Z,951.49
2018-12-11T02:27:35.696Z,951.5
2018-12-11T02:28:35.677Z,951.52
2018-12-11T02:29:35.658Z,951.53
2018-12-11T02:30:35.645Z,951.47
2018-12-11T02:31:35.622Z,951.52
2018-12-11T02:32:35.603Z,951.44
2018-12-11T02:33:35.590Z,951.45
2018-12-11T02:34:35.567Z,951.48
2018-12-11T02:35:35.546Z,951.43
2018-12-11T02:36:35.528Z,951.47
2018-12-11T02:37:35.509Z,951.41
2018-12-11T02:38:35.491Z,951.42
2018-12-11T02:39:35.472Z,951.33
2018-12-11T02:40:35.455Z,951.37
2018-12-11T02:41:35.434Z,951.29
2018-12-11T02:42:35.417Z,951.32
2018-12-11T02:43:35.400Z,951.3
2018-12-11T02:44:35.379Z,951.34
2018-12-11T02:45:35.360Z,951.34
2018-12-11T02:46:35.343Z,951.28
2018-12-11T02:47:35.322Z,951.24
2018-12-11T02:48:35.303Z,951.3
2018-12-11T02:49:35.286Z,951.26
2018-12-11T02:50:35.267Z,951.27
2018-12-11T02:51:35.248Z,951.31
2018-12-11T02:52:35.230Z,951.24
2018-12-11T02:55:43.689Z,951.32
2018-12-11T02:56:43.672Z,951.29
2018-12-11T02:57:43.647Z,951.32
2018-12-11T02:58:43.628Z,951.35
2018-12-11T02:59:43.610Z,951.25
2018-12-11T03:00:43.590Z,951.35
2018-12-11T03:01:43.582Z,951.39
2018-12-11T03:02:43.555Z,951.42
2018-12-11T03:03:43.536Z,951.37
2018-12-11T03:04:43.515Z,951.39
2018-12-11T03:05:43.799Z,951.39
2018-12-11T03:06:43.479Z,951.42
2018-12-11T03:07:43.460Z,951.4
2018-12-11T03:08:43.442Z,951.41
2018-12-11T03:09:43.425Z,951.38
2018-12-11T03:10:43.505Z,951.37
2018-12-11T03:11:43.452Z,951.4
2018-12-11T03:12:43.366Z,951.37
2018-12-11T03:13:43.357Z,951.38
2018-12-11T03:14:43.329Z,951.36
2018-12-11T03:15:43.310Z,951.36
2018-12-11T03:16:43.293Z,951.32
2018-12-11T03:17:43.274Z,951.39
2018-12-11T03:18:43.254Z,951.32
2018-12-11T03:19:43.235Z,951.34
2018-12-11T03:20:43.225Z,951.34
2018-12-11T03:21:43.200Z,951.32
2018-12-11T03:22:43.180Z,951.35
2018-12-11T03:23:43.164Z,951.33
2018-12-11T03:24:43.143Z,951.35
2018-12-11T03:25:43.125Z,951.35
2018-12-11T03:26:43.105Z,951.34
2018-12-11T03:27:43.089Z,951.31
2018-12-11T03:28:43.069Z,951.36
2018-12-11T03:29:43.048Z,951.32
2018-12-11T03:30:43.031Z,951.39
2018-12-11T03:31:43.013Z,951.41
2018-12-11T03:32:43.010Z,951.39
2018-12-11T03:33:42.977Z,951.34
2018-12-11T03:34:42.957Z,951.38
2018-12-11T03:35:42.937Z,951.36
2018-12-11T03:36:42.919Z,951.33
2018-12-11T03:37:42.898Z,951.37
2018-12-11T03:38:42.881Z,951.3
2018-12-11T03:39:42.862Z,951.32
2018-12-11T03:40:42.843Z,951.32
2018-12-11T03:41:42.824Z,951.45
2018-12-11T03:42:42.805Z,951.39
2018-12-11T03:43:42.795Z,951.41
2018-12-11T03:44:42.769Z,951.4
2018-12-11T03:45:42.749Z,951.35
2018-12-11T03:46:42.730Z,951.35
2018-12-11T03:47:42.712Z,951.37
2018-12-11T03:48:42.694Z,951.43
2018-12-11T03:49:42.676Z,951.3
2018-12-11T03:50:42.657Z,951.4
2018-12-11T03:51:42.638Z,951.43
2018-12-11T03:52:42.624Z,951.39
2018-12-11T03:53:42.601Z,951.4
2018-12-11T03:54:42.581Z,951.42
2018-12-11T03:55:42.562Z,951.38
2018-12-11T03:56:42.544Z,951.41
2018-12-11T03:57:42.533Z,951.39
2018-12-11T03:58:42.506Z,951.42
2018-12-11T03:59:42.488Z,951.41
2018-12-11T04:00:42.468Z,951.35
2018-12-11T04:01:42.451Z,951.38
2018-12-11T04:02:42.430Z,951.35
2018-12-11T04:03:42.411Z,951.4
2018-12-11T04:04:42.394Z,951.34
2018-12-11T04:05:42.375Z,951.36
2018-12-11T04:06:42.357Z,951.35
2018-12-11T04:07:42.358Z,951.37
2018-12-11T04:08:42.319Z,951.39
2018-12-11T04:09:42.314Z,951.41
2018-12-11T04:10:42.284Z,951.43
2018-12-11T04:11:42.263Z,951.41
2018-12-11T04:12:42.244Z,951.45
2018-12-11T04:13:42.224Z,951.34
2018-12-11T04:14:42.209Z,951.44
2018-12-11T04:15:42.189Z,951.43
2018-12-11T04:16:42.169Z,951.47
2018-12-11T04:17:42.153Z,951.42
2018-12-11T04:18:42.136Z,951.49
2018-12-11T04:19:42.111Z,951.46
2018-12-11T04:20:42.093Z,951.54
2018-12-11T04:21:42.076Z,951.51
2018-12-11T04:22:42.059Z,951.51
2018-12-11T04:23:42.042Z,951.56
2018-12-11T04:24:42.018Z,951.53
2018-12-11T04:25:41.999Z,951.58
2018-12-11T04:26:41.984Z,951.55
2018-12-11T04:27:41.962Z,951.53
2018-12-11T04:28:41.944Z,951.59
2018-12-11T04:29:41.924Z,951.63
2018-12-11T04:30:41.911Z,951.64
2018-12-11T04:31:41.889Z,951.64
2018-12-11T04:32:41.868Z,951.65
2018-12-11T04:33:41.851Z,951.67
2018-12-11T04:34:41.832Z,951.66
2018-12-11T04:35:41.812Z,951.67
2018-12-11T04:36:41.793Z,951.73
2018-12-11T04:37:41.775Z,951.78
2018-12-11T04:38:41.756Z,951.75
2018-12-11T04:39:41.739Z,951.8
2018-12-11T04:40:41.718Z,951.79
2018-12-11T04:41:41.701Z,951.77
2018-12-11T04:42:41.680Z,951.81
2018-12-11T04:43:41.662Z,951.8
2018-12-11T04:44:41.643Z,951.89
2018-12-11T04:45:41.625Z,951.82
2018-12-11T04:46:41.606Z,951.8
2018-12-11T04:47:41.587Z,951.82
2018-12-11T04:48:41.568Z,951.89
2018-12-11T04:49:41.550Z,951.9
2018-12-11T04:50:41.529Z,951.88
2018-12-11T04:51:41.511Z,951.85
2018-12-11T04:52:41.492Z,951.88
2018-12-11T04:53:41.476Z,951.87
2018-12-11T04:54:41.457Z,951.88
2018-12-11T04:55:41.438Z,951.95
2018-12-11T04:56:41.418Z,951.88
2018-12-11T04:57:41.398Z,951.88
2018-12-11T04:58:41.381Z,951.89
2018-12-11T04:59:41.363Z,951.94
2018-12-11T05:00:41.342Z,951.92
2018-12-11T05:01:41.323Z,951.85
2018-12-11T05:02:41.305Z,951.9
2018-12-11T05:03:41.287Z,951.85
2018-12-11T05:04:41.268Z,951.93
2018-12-11T05:05:41.249Z,951.91
2018-12-11T05:06:41.235Z,951.9
2018-12-11T05:07:41.211Z,951.88
2018-12-11T05:08:41.195Z,951.94
2018-12-11T05:09:41.172Z,951.96
2018-12-11T05:10:41.155Z,952
2018-12-11T05:11:41.136Z,952.07
2018-12-11T05:12:41.117Z,952.06
2018-12-11T05:13:41.098Z,952.05
2018-12-11T05:14:41.079Z,952.08
2018-12-11T05:15:41.062Z,952.03
2018-12-11T05:16:41.042Z,951.96
2018-12-11T05:17:41.023Z,952.05
2018-12-11T05:18:41.005Z,952.01
2018-12-11T05:19:40.987Z,951.99
2018-12-11T05:20:40.967Z,952.01
2018-12-11T05:21:40.949Z,952.07
2018-12-11T05:22:40.929Z,952.11
2018-12-11T05:23:40.912Z,952.08
2018-12-11T05:24:40.893Z,952.1
2018-12-11T05:25:40.875Z,952.13
2018-12-11T05:26:40.854Z,952.11
2018-12-11T05:27:40.836Z,952.1
2018-12-11T05:28:40.819Z,952.18
2018-12-11T05:29:40.800Z,952.11
2018-12-11T05:30:40.779Z,952.12
2018-12-11T05:31:40.761Z,952.16
2018-12-11T05:32:40.743Z,952.15
2018-12-11T05:33:40.723Z,952.15
2018-12-11T05:34:40.706Z,952.19
2018-12-11T05:35:40.687Z,952.13
2018-12-11T05:36:40.669Z,952.09
2018-12-11T05:37:40.649Z,952.1
2018-12-11T05:38:40.630Z,952.11
2018-12-11T05:39:40.612Z,952.16
2018-12-11T05:40:40.593Z,952.07
2018-12-11T05:41:40.574Z,952.06
2018-12-11T05:42:40.556Z,952.1
2018-12-11T05:43:40.539Z,952.1
2018-12-11T05:44:40.519Z,952.06
2018-12-11T05:45:40.499Z,952.08
2018-12-11T05:46:40.481Z,952.04
2018-12-11T05:47:40.463Z,952.1
2018-12-11T05:48:40.443Z,952.09
2018-12-11T05:49:40.427Z,952.16
2018-12-11T05:50:40.407Z,952.15
2018-12-11T05:51:40.389Z,952.15
2018-12-11T05:52:40.391Z,952.18
2018-12-11T05:53:40.350Z,952.25
2018-12-11T05:54:40.332Z,952.21
2018-12-11T05:55:40.313Z,952.23
2018-12-11T05:56:40.294Z,952.19
2018-12-11T05:57:40.277Z,952.13
2018-12-11T05:58:40.258Z,952.14
2018-12-11T05:59:40.239Z,952.1
2018-12-11T06:00:40.219Z,952.16
2018-12-11T06:01:40.201Z,952.13
2018-12-11T06:02:40.183Z,952.18
2018-12-11T06:03:40.164Z,952.16
2018-12-11T06:04:40.146Z,952.18
2018-12-11T06:05:40.130Z,952.17
2018-12-11T06:06:40.108Z,952.19
2018-12-11T06:07:40.088Z,952.25
2018-12-11T06:08:40.071Z,952.23
2018-12-11T06:09:40.052Z,952.21
2018-12-11T06:10:40.033Z,952.21
2018-12-11T06:11:40.015Z,952.24
2018-12-11T06:12:39.996Z,952.26
2018-12-11T06:13:39.979Z,952.26
2018-12-11T06:14:39.958Z,952.27
2018-12-11T06:15:39.940Z,952.3
2018-12-11T06:16:39.923Z,952.25
2018-12-11T06:17:39.903Z,952.25
2018-12-11T06:18:39.884Z,952.32
2018-12-11T06:19:39.866Z,952.28
2018-12-11T06:20:39.849Z,952.31
2018-12-11T06:21:39.828Z,952.25
2018-12-11T06:22:39.810Z,952.28
2018-12-11T06:23:39.791Z,952.36
2018-12-11T06:24:39.773Z,952.35
2018-12-11T06:25:39.753Z,952.26
2018-12-11T06:26:39.735Z,952.31
2018-12-11T06:27:39.716Z,952.37
2018-12-11T06:28:39.697Z,952.33
2018-12-11T06:29:39.680Z,952.32
2018-12-11T06:30:39.698Z,952.31
2018-12-11T06:31:39.640Z,952.32
2018-12-11T06:32:39.624Z,952.35
2018-12-11T06:33:39.610Z,952.4
2018-12-11T06:34:39.586Z,952.37
2018-12-11T06:35:39.567Z,952.38
2018-12-11T06:36:39.549Z,952.39
2018-12-11T06:37:39.531Z,952.37
2018-12-11T06:38:39.511Z,952.41
2018-12-11T06:39:39.491Z,952.37
2018-12-11T06:40:39.474Z,952.46
2018-12-11T06:41:39.455Z,952.41
2018-12-11T06:42:39.436Z,952.44
2018-12-11T06:43:39.419Z,952.4
2018-12-11T06:44:39.398Z,952.4
2018-12-11T06:45:39.388Z,952.38
2018-12-11T06:46:39.361Z,952.38
2018-12-11T06:47:39.345Z,952.38
2018-12-11T06:48:39.326Z,952.36
2018-12-11T06:49:39.305Z,952.4
2018-12-11T06:50:39.286Z,952.33
2018-12-11T06:51:39.269Z,952.42
2018-12-11T06:52:39.249Z,952.42
2018-12-11T06:53:39.231Z,952.42
2018-12-11T06:54:39.211Z,952.39
2018-12-11T06:55:39.194Z,952.39
2018-12-11T06:56:39.175Z,952.37
2018-12-11T06:57:39.156Z,952.4
2018-12-11T06:58:39.138Z,952.4
2018-12-11T06:59:39.120Z,952.41
2018-12-11T07:00:39.100Z,952.43
2018-12-11T07:01:39.083Z,952.45
2018-12-11T07:02:39.064Z,952.37
2018-12-11T07:03:39.046Z,952.4
2018-12-11T07:04:39.028Z,952.42
2018-12-11T07:05:39.009Z,952.4
2018-12-11T07:06:38.990Z,952.39
2018-12-11T07:07:38.972Z,952.37
2018-12-11T07:08:38.951Z,952.39
2018-12-11T07:09:38.933Z,952.35
2018-12-11T07:10:38.917Z,952.33
2018-12-11T07:11:38.896Z,952.35
2018-12-11T07:12:38.953Z,952.33
2018-12-11T07:13:38.859Z,952.33
2018-12-11T07:14:38.841Z,952.36
2018-12-11T07:15:38.822Z,952.38
2018-12-11T07:16:38.804Z,952.35
2018-12-11T07:17:38.784Z,952.35
2018-12-11T07:18:38.816Z,952.37
2018-12-11T07:19:38.746Z,952.37
2018-12-11T07:20:38.728Z,952.35
2018-12-11T07:21:38.710Z,952.37
2018-12-11T07:22:38.692Z,952.37
2018-12-11T07:23:38.674Z,952.4
2018-12-11T07:24:38.655Z,952.43
2018-12-11T07:25:38.636Z,952.45
2018-12-11T07:26:38.617Z,952.31
2018-12-11T07:27:38.598Z,952.42
2018-12-11T07:28:38.581Z,952.43
2018-12-11T07:29:38.562Z,952.42
2018-12-11T07:30:38.544Z,952.44
2018-12-11T07:31:38.524Z,952.4
2018-12-11T07:32:38.506Z,952.31
2018-12-11T07:33:38.487Z,952.36
2018-12-11T07:34:38.468Z,952.4
2018-12-11T07:35:38.450Z,952.48
2018-12-11T07:36:38.434Z,952.45
2018-12-11T07:37:38.414Z,952.49
2018-12-11T07:38:38.395Z,952.5
2018-12-11T07:39:38.376Z,952.49
2018-12-11T07:40:38.359Z,952.49
2018-12-11T07:41:38.338Z,952.44
2018-12-11T07:42:38.320Z,952.44
2018-12-11T07:43:38.302Z,952.43
2018-12-11T07:44:38.284Z,952.39
2018-12-11T07:45:38.265Z,952.42
2018-12-11T07:46:38.246Z,952.43
2018-12-11T07:47:38.227Z,952.47
2018-12-11T07:48:38.211Z,952.51
2018-12-11T07:49:38.191Z,952.48
2018-12-11T07:50:38.176Z,952.54
2018-12-11T07:51:38.155Z,952.57
2018-12-11T07:52:38.137Z,952.56
2018-12-11T07:53:38.121Z,952.58
2018-12-11T07:54:38.100Z,952.59
2018-12-11T07:55:38.083Z,952.56
2018-12-11T07:56:38.069Z,952.6
2018-12-11T07:57:38.044Z,952.58
2018-12-11T07:58:38.025Z,952.53
2018-12-11T07:59:38.007Z,952.49
2018-12-11T08:00:37.988Z,952.54
2018-12-11T08:01:37.970Z,952.49
2018-12-11T08:02:37.952Z,952.53
2018-12-11T08:03:37.932Z,952.47
2018-12-11T08:04:37.914Z,952.54
2018-12-11T08:05:37.896Z,952.54
2018-12-11T08:06:37.883Z,952.55
2018-12-11T08:07:37.859Z,952.57
2018-12-11T08:08:37.843Z,952.56
2018-12-11T08:09:37.823Z,952.57
2018-12-11T08:10:37.806Z,952.55
2018-12-11T08:11:37.789Z,952.64
2018-12-11T08:12:37.771Z,952.59
2018-12-11T08:13:37.748Z,952.53
2018-12-11T08:14:37.729Z,952.57
2018-12-11T08:15:37.711Z,952.51
2018-12-11T08:16:37.693Z,952.57
2018-12-11T08:17:37.678Z,952.63
2018-12-11T08:18:37.658Z,952.55
2018-12-11T08:19:37.639Z,952.55
2018-12-11T08:20:37.619Z,952.6
2018-12-11T08:21:37.600Z,952.57
2018-12-11T08:22:37.582Z,952.55
2018-12-11T08:23:37.564Z,952.57
2018-12-11T08:24:37.600Z,952.56
2018-12-11T08:25:37.531Z,952.51
2018-12-11T08:26:37.509Z,952.5
2018-12-11T08:27:37.491Z,952.56
2018-12-11T08:28:37.470Z,952.52
2018-12-11T08:29:37.453Z,952.62
2018-12-11T08:30:37.434Z,952.52
2018-12-11T08:31:37.416Z,952.5
2018-12-11T08:32:37.398Z,952.58
2018-12-11T08:33:37.380Z,952.55
2018-12-11T08:34:37.362Z,952.57
2018-12-11T08:35:37.344Z,952.57
2018-12-11T08:36:37.326Z,952.57
2018-12-11T08:37:37.306Z,952.64
2018-12-11T08:38:37.288Z,952.64
2018-12-11T08:39:37.270Z,952.63
2018-12-11T08:40:37.254Z,952.57
2018-12-11T08:41:37.233Z,952.58
2018-12-11T08:42:37.261Z,952.63
2018-12-11T08:43:37.196Z,952.58
2018-12-11T08:44:37.178Z,952.58
2018-12-11T08:45:37.160Z,952.63
2018-12-11T08:46:37.150Z,952.68
2018-12-11T08:47:37.123Z,952.67
2018-12-11T08:48:37.113Z,952.65
2018-12-11T08:49:37.089Z,952.63
2018-12-11T08:50:37.069Z,952.67
2018-12-11T08:51:37.051Z,952.66
2018-12-11T08:52:37.032Z,952.65
2018-12-11T08:53:37.015Z,952.64
2018-12-11T08:54:36.995Z,952.7
2018-12-11T08:55:36.978Z,952.67
2018-12-11T08:56:36.957Z,952.71
2018-12-11T08:57:36.940Z,952.74
2018-12-11T08:58:36.921Z,952.75
2018-12-11T08:59:36.904Z,952.74
2018-12-11T09:00:36.886Z,952.76
2018-12-11T09:01:36.870Z,952.76
2018-12-11T09:02:36.856Z,952.78
2018-12-11T09:03:36.830Z,952.78
2018-12-11T09:04:36.813Z,952.8
2018-12-11T09:05:36.794Z,952.77
2018-12-11T09:06:36.777Z,952.75
2018-12-11T09:07:36.758Z,952.74
2018-12-11T09:08:36.740Z,952.74
2018-12-11T09:09:36.721Z,952.77
2018-12-11T09:10:36.703Z,952.79
2018-12-11T09:11:36.686Z,952.76
2018-12-11T09:12:36.668Z,952.79
2018-12-11T09:13:36.649Z,952.77
2018-12-11T09:14:36.630Z,952.76
2018-12-11T09:15:36.612Z,952.8
2018-12-11T09:16:36.593Z,952.8
2018-12-11T09:17:36.577Z,952.8
2018-12-11T09:18:36.557Z,952.84
2018-12-11T09:19:36.539Z,952.78
2018-12-11T09:20:36.520Z,952.76
2018-12-11T09:21:36.503Z,952.84
2018-12-11T09:22:36.498Z,952.86
2018-12-11T09:23:36.467Z,952.82
2018-12-11T09:24:36.449Z,952.88
2018-12-11T09:25:36.431Z,952.9
2018-12-11T09:26:36.413Z,952.82
2018-12-11T09:27:36.394Z,952.79
2018-12-11T09:28:36.376Z,952.85
2018-12-11T09:29:36.359Z,952.9
2018-12-11T09:30:36.342Z,952.89
2018-12-11T09:31:36.326Z,952.81
2018-12-11T09:32:36.305Z,952.85
2018-12-11T09:33:36.286Z,952.82
2018-12-11T09:34:36.267Z,952.87
2018-12-11T09:35:36.249Z,952.82
2018-12-11T09:36:36.234Z,952.86
2018-12-11T09:37:36.213Z,952.83
2018-12-11T09:38:36.194Z,952.83
2018-12-11T09:39:36.177Z,952.8
2018-12-11T09:40:36.160Z,952.79
2018-12-11T09:41:36.141Z,952.8
2018-12-11T09:42:36.122Z,952.8
2018-12-11T09:43:36.104Z,952.8
2018-12-11T09:44:36.086Z,952.87
2018-12-11T09:45:36.069Z,952.78
2018-12-11T09:46:36.051Z,952.84
2018-12-11T09:47:36.033Z,952.81
2018-12-11T09:48:36.015Z,952.77
2018-12-11T09:49:35.996Z,952.73
2018-12-11T09:50:35.983Z,952.77
2018-12-11T09:51:35.961Z,952.78
2018-12-11T09:52:35.943Z,952.75
2018-12-11T09:53:35.924Z,952.79
2018-12-11T09:54:35.906Z,952.79
2018-12-11T09:55:35.889Z,952.77
2018-12-11T09:56:35.875Z,952.76
2018-12-11T09:57:35.852Z,952.74
2018-12-11T09:58:35.835Z,952.77
2018-12-11T09:59:35.816Z,952.74
2018-12-11T10:00:35.833Z,952.8
2018-12-11T10:01:35.780Z,952.69
2018-12-11T10:02:35.762Z,952.76
2018-12-11T10:03:35.763Z,952.77
2018-12-11T10:04:35.726Z,952.76
2018-12-11T10:05:35.707Z,952.82
2018-12-11T10:06:35.691Z,952.77
2018-12-11T10:07:35.672Z,952.76
2018-12-11T10:08:35.655Z,952.75
2018-12-11T10:09:35.636Z,952.79
2018-12-11T10:10:35.618Z,952.81
2018-12-11T10:11:35.599Z,952.86
2018-12-11T10:12:35.582Z,952.76
2018-12-11T10:13:35.565Z,952.77
2018-12-11T10:14:35.547Z,952.77
2018-12-11T10:15:35.528Z,952.75
2018-12-11T10:16:35.509Z,952.76
2018-12-11T10:17:35.492Z,952.75
2018-12-11T10:18:35.473Z,952.74
2018-12-11T10:19:35.454Z,952.75
2018-12-11T10:20:35.437Z,952.76
2018-12-11T10:21:35.419Z,952.77
2018-12-11T10:22:35.399Z,952.76
2018-12-11T10:23:35.386Z,952.74
2018-12-11T10:24:35.365Z,952.73
2018-12-11T10:25:35.346Z,952.83
2018-12-11T10:26:35.396Z,952.78
2018-12-11T10:27:35.311Z,952.71
2018-12-11T10:28:35.291Z,952.71
2018-12-11T10:29:35.273Z,952.67
2018-12-11T10:30:35.256Z,952.71
2018-12-11T10:31:35.237Z,952.84
2018-12-11T10:32:35.220Z,952.71
2018-12-11T10:33:35.204Z,952.76
2018-12-11T10:34:35.184Z,952.75
2018-12-11T10:35:35.164Z,952.76
2018-12-11T10:36:35.146Z,952.75
2018-12-11T10:37:35.127Z,952.7
2018-12-11T10:38:35.111Z,952.82
2018-12-11T10:39:35.093Z,952.68
2018-12-11T10:40:35.072Z,952.73
2018-12-11T10:41:35.055Z,952.74
2018-12-11T10:42:35.036Z,952.67
2018-12-11T10:43:35.022Z,952.69
2018-12-11T10:44:35.001Z,952.73
2018-12-11T10:45:34.983Z,952.66
2018-12-11T10:46:35.005Z,952.74
2018-12-11T10:47:34.946Z,952.77
2018-12-11T10:48:34.928Z,952.73
2018-12-11T10:49:34.909Z,952.72
2018-12-11T10:50:34.890Z,952.76
2018-12-11T10:51:34.871Z,952.76
2018-12-11T10:52:34.854Z,952.75
2018-12-11T10:53:34.835Z,952.78
2018-12-11T10:54:34.818Z,952.74
2018-12-11T10:55:34.798Z,952.75
2018-12-11T10:56:34.781Z,952.72
2018-12-11T10:57:34.764Z,952.79
2018-12-11T10:58:34.745Z,952.79
2018-12-11T10:59:34.725Z,952.78
2018-12-11T11:00:34.708Z,952.77
2018-12-11T11:01:34.691Z,952.76
2018-12-11T11:02:34.672Z,952.8
2018-12-11T11:03:34.657Z,952.78
2018-12-11T11:04:34.635Z,952.78
2018-12-11T11:05:34.628Z,952.79
2018-12-11T11:06:34.597Z,952.78
2018-12-11T11:07:34.580Z,952.72
2018-12-11T11:08:34.565Z,952.79
2018-12-11T11:09:34.544Z,952.8
2018-12-11T11:10:34.526Z,952.76
2018-12-11T11:11:34.520Z,952.81
2018-12-11T11:12:34.520Z,952.82
2018-12-11T11:13:34.469Z,952.74
2018-12-11T11:14:34.475Z,952.71
2018-12-11T11:15:34.472Z,952.82
2018-12-11T11:16:34.415Z,952.79
2018-12-11T11:17:34.397Z,952.76
2018-12-11T11:18:34.379Z,952.88
2018-12-11T11:19:34.360Z,952.8
2018-12-11T11:20:34.343Z,952.82
2018-12-11T11:21:34.325Z,952.84
2018-12-11T11:22:34.304Z,952.86
2018-12-11T11:23:34.287Z,952.87
2018-12-11T11:24:34.272Z,952.85
2018-12-11T11:25:34.249Z,952.87
2018-12-11T11:26:34.232Z,952.89
2018-12-11T11:27:34.215Z,952.93
2018-12-11T11:28:34.194Z,952.92
2018-12-11T11:29:34.177Z,952.85
2018-12-11T11:30:34.160Z,952.93
2018-12-11T11:31:34.141Z,952.91
2018-12-11T11:32:34.122Z,952.85
2018-12-11T11:33:34.104Z,952.9
2018-12-11T11:34:34.088Z,952.9
2018-12-11T11:35:34.067Z,952.86
2018-12-11T11:36:34.048Z,952.91
2018-12-11T11:37:34.030Z,952.9
2018-12-11T11:38:34.012Z,952.91
2018-12-11T11:39:33.994Z,952.86
2018-12-11T11:40:33.976Z,952.9
2018-12-11T11:41:33.957Z,952.89
2018-12-11T11:42:33.940Z,952.91
2018-12-11T11:43:33.921Z,952.95
2018-12-11T11:44:33.904Z,952.88
2018-12-11T11:45:33.886Z,952.93
2018-12-11T11:46:33.866Z,952.88
2018-12-11T11:47:33.849Z,952.92
2018-12-11T11:48:33.830Z,952.94
2018-12-11T11:49:33.812Z,952.89
2018-12-11T11:50:33.794Z,952.97
2018-12-11T11:51:33.775Z,952.91
2018-12-11T11:52:33.756Z,952.99
2018-12-11T11:53:33.738Z,952.9
2018-12-11T11:54:33.719Z,953.01
2018-12-11T11:55:33.701Z,953.03
2018-12-11T11:56:33.686Z,952.99
2018-12-11T11:57:33.664Z,952.97
2018-12-11T11:58:33.648Z,952.99
2018-12-11T11:59:33.628Z,952.99
2018-12-11T12:00:33.610Z,953
2018-12-11T12:01:33.591Z,953.03
2018-12-11T12:02:33.629Z,953.02
2018-12-11T12:03:33.558Z,953.04
2018-12-11T12:04:33.536Z,953.02
2018-12-11T12:05:33.519Z,953.05
2018-12-11T12:06:33.500Z,953.06
2018-12-11T12:07:33.482Z,953.01
2018-12-11T12:08:33.462Z,953.07
2018-12-11T12:09:33.445Z,953.11
2018-12-11T12:10:33.429Z,953.08
2018-12-11T12:11:33.408Z,953.08
2018-12-11T12:12:33.391Z,953.1
2018-12-11T12:13:33.371Z,953.14
2018-12-11T12:14:33.354Z,953.1
2018-12-11T12:15:33.335Z,953.16
2018-12-11T12:16:33.317Z,953.14
2018-12-11T12:17:33.298Z,953.12
2018-12-11T12:18:33.280Z,953.13
2018-12-11T12:19:33.261Z,953.05
2018-12-11T12:20:33.243Z,953.1
2018-12-11T12:21:33.226Z,953.14
2018-12-11T12:22:33.209Z,953.15
2018-12-11T12:23:33.191Z,953.19
2018-12-11T12:24:33.171Z,953.16
2018-12-11T12:25:33.153Z,953.17
2018-12-11T12:26:33.134Z,953.13
2018-12-11T12:27:33.122Z,953.14
2018-12-11T12:28:33.099Z,953.11
2018-12-11T12:29:33.079Z,953.17
2018-12-11T12:30:33.061Z,953.13
2018-12-11T12:31:33.041Z,953.22
2018-12-11T12:32:33.024Z,953.18
2018-12-11T12:33:33.010Z,953.18